Time;durP1;ratioP1;P1;durP2;ratioP2;P2;SDS_P1;SDS_P2;PMS_P1;PMS_P2;Temp;Humidity;BMP_temperature;BMP_pressure;BME280_temperature;BME280_humidity;BME280_pressure;Samples;Min_cycle;Max_cycle;Signal;HPM_P1;HPM_P2
2023/06/01 14:27:42;;;;;;;8.57;2.83;;;20.90;99.90;;;;;;5658703;23;20229;-89
2023/06/01 14:30:09;;;;;;;6.85;3.05;;;20.90;99.90;;;;;;5014594;28;20205;-90
2023/06/01 14:32:36;;;;;;;5.97;3.10;;;21.00;99.90;;;;;;5014074;28;20236;-90
2023/06/01 14:35:03;;;;;;;5.97;3.08;;;21.00;99.90;;;;;;5014339;28;20256;-90
2023/06/01 14:37:31;;;;;;;7.85;3.13;;;21.00;99.90;;;;;;5014753;28;20194;-89
2023/06/01 14:39:58;;;;;;;5.88;3.35;;;21.00;99.90;;;;;;5014554;28;20253;-91
2023/06/01 14:42:25;;;;;;;6.47;3.10;;;21.00;99.90;;;;;;5014628;28;20244;-91
2023/06/01 14:44:53;;;;;;;4.38;2.95;;;21.00;99.90;;;;;;5014366;28;20198;-91
2023/06/01 14:47:20;;;;;;;6.97;3.47;;;20.90;99.90;;;;;;4995355;28;20195;-90
2023/06/01 14:49:47;;;;;;;5.15;2.78;;;20.90;99.90;;;;;;5005341;28;20206;-91
2023/06/01 14:52:14;;;;;;;9.23;3.22;;;21.00;99.90;;;;;;5014719;28;20274;-89
2023/06/01 14:54:41;;;;;;;8.77;3.00;;;21.00;99.90;;;;;;5014462;28;20667;-91
2023/06/01 14:57:08;;;;;;;5.10;3.00;;;21.00;99.90;;;;;;5014754;28;20252;-91
2023/06/01 14:59:36;;;;;;;6.22;3.33;;;21.10;99.90;;;;;;5014571;28;20288;-91
2023/06/01 15:02:06;;;;;;;5.85;2.83;;;21.30;99.90;;;;;;5014691;28;20201;-90
2023/06/01 15:04:34;;;;;;;7.80;3.67;;;21.30;99.90;;;;;;5014544;28;20196;-91
2023/06/01 15:07:01;;;;;;;6.13;3.28;;;21.40;99.90;;;;;;5011841;28;20217;-91
2023/06/01 15:09:28;;;;;;;5.50;3.13;;;21.50;99.90;;;;;;5014144;28;20241;-92
2023/06/01 15:11:56;;;;;;;7.28;3.30;;;21.40;99.90;;;;;;5014014;28;20781;-92
2023/06/01 15:14:24;;;;;;;11.45;3.05;;;21.20;99.90;;;;;;5014463;28;20256;-91
2023/06/01 15:16:50;;;;;;;4.97;3.03;;;21.00;99.90;;;;;;5014408;28;20248;-91
2023/06/01 15:19:19;;;;;;;5.88;3.45;;;21.00;99.90;;;;;;5014795;28;20209;-91
2023/06/01 15:21:46;;;;;;;5.45;2.80;;;21.00;99.90;;;;;;5014704;28;20195;-92
2023/06/01 15:24:13;;;;;;;9.43;3.00;;;21.00;99.90;;;;;;5014619;28;20202;-91
2023/06/01 15:26:40;;;;;;;7.65;3.10;;;21.00;99.90;;;;;;5014894;28;20224;-91
2023/06/01 15:29:07;;;;;;;6.03;2.75;;;21.10;99.90;;;;;;5014599;28;20758;-91
2023/06/01 15:31:34;;;;;;;9.25;3.45;;;21.20;99.90;;;;;;5014281;28;20217;-91
2023/06/01 15:34:01;;;;;;;6.88;2.97;;;21.10;99.90;;;;;;5030167;28;20193;-91
2023/06/01 15:36:30;;;;;;;7.38;2.95;;;21.00;99.90;;;;;;4995139;28;20257;-91
2023/06/01 15:38:57;;;;;;;7.90;3.22;;;20.90;99.90;;;;;;5004011;28;20186;-93
2023/06/01 15:41:24;;;;;;;8.18;3.53;;;20.80;99.90;;;;;;5014433;28;20194;-91
2023/06/01 15:43:51;;;;;;;7.22;3.03;;;20.90;99.90;;;;;;5014647;28;20198;-91
2023/06/01 15:46:19;;;;;;;4.65;2.78;;;20.80;99.90;;;;;;5014582;28;20225;-93
2023/06/01 15:48:46;;;;;;;8.82;4.20;;;20.80;99.90;;;;;;5014643;28;20297;-93
2023/06/01 15:51:13;;;;;;;9.13;3.70;;;20.70;99.90;;;;;;5014037;28;20214;-92
2023/06/01 15:53:41;;;;;;;5.47;3.05;;;20.70;99.90;;;;;;5014021;28;20198;-92
2023/06/01 15:56:08;;;;;;;5.40;2.85;;;20.70;99.90;;;;;;5013011;28;20198;-93
2023/06/01 15:58:35;;;;;;;13.02;3.10;;;20.60;99.90;;;;;;5014147;28;20620;-94
2023/06/01 16:01:02;;;;;;;6.63;3.28;;;20.60;99.90;;;;;;5014531;28;20742;-93
2023/06/01 16:03:29;;;;;;;7.32;3.05;;;20.60;99.90;;;;;;5012097;28;20198;-90
2023/06/01 16:05:56;;;;;;;11.35;3.47;;;20.70;99.90;;;;;;5013002;28;20249;-92
2023/06/01 16:08:23;;;;;;;6.55;3.90;;;20.70;99.90;;;;;;5004057;28;20266;-92
2023/06/01 16:10:51;;;;;;;5.32;3.10;;;20.70;99.90;;;;;;5011849;28;20812;-92
2023/06/01 16:13:18;;;;;;;11.20;3.45;;;20.80;99.90;;;;;;5023137;28;20252;-91
2023/06/01 16:15:45;;;;;;;7.28;3.38;;;20.70;99.90;;;;;;5016167;28;20198;-91
2023/06/01 16:18:12;;;;;;;5.82;3.17;;;20.80;99.90;;;;;;5009557;28;20725;-92
2023/06/01 16:20:39;;;;;;;5.25;2.95;;;20.80;99.90;;;;;;5016878;28;20221;-91
2023/06/01 16:23:06;;;;;;;5.68;3.03;;;20.80;99.90;;;;;;5004935;28;20238;-92
2023/06/01 16:25:35;;;;;;;12.10;3.05;;;20.80;99.90;;;;;;5013358;28;20590;-91
2023/06/01 16:28:04;;;;;;;8.98;2.97;;;20.60;99.90;;;;;;5026633;28;20264;-94
2023/06/01 16:30:30;;;;;;;7.80;2.63;;;20.80;99.90;;;;;;5026485;28;20198;-95
2023/06/01 16:32:57;;;;;;;7.15;2.70;;;20.90;99.90;;;;;;5011374;28;20699;-92
2023/06/01 16:35:24;;;;;;;8.02;3.03;;;21.20;99.90;;;;;;5004519;28;20207;-90
2023/06/01 16:37:52;;;;;;;7.63;2.90;;;21.40;99.90;;;;;;5016842;28;20221;-91
2023/06/01 16:40:19;;;;;;;9.23;3.30;;;21.30;99.90;;;;;;5023707;28;20201;-93
2023/06/01 16:42:46;;;;;;;8.27;2.88;;;21.20;99.90;;;;;;5021167;28;20245;-91
2023/06/01 16:45:15;;;;;;;7.15;3.63;;;21.00;99.90;;;;;;5010964;28;20198;-91
2023/06/01 16:47:42;;;;;;;8.05;3.25;;;21.20;99.90;;;;;;5014028;28;20202;-92
2023/06/01 16:50:09;;;;;;;5.63;3.42;;;21.50;99.90;;;;;;5014620;28;20229;-92
2023/06/01 16:52:36;;;;;;;15.23;3.63;;;21.80;99.90;;;;;;5016588;28;20226;-92
2023/06/01 16:55:04;;;;;;;4.97;2.78;;;21.90;99.90;;;;;;5014999;28;20222;-92
2023/06/01 16:57:31;;;;;;;7.18;3.50;;;21.80;99.90;;;;;;5007727;28;20660;-92
2023/06/01 16:59:58;;;;;;;4.97;2.60;;;21.40;99.90;;;;;;5016441;28;20198;-91
2023/06/01 17:02:27;;;;;;;5.28;3.08;;;21.10;99.90;;;;;;5017010;28;20194;-92
2023/06/01 17:04:54;;;;;;;8.07;3.25;;;21.30;99.90;;;;;;5016998;28;20195;-92
2023/06/01 17:07:21;;;;;;;7.18;3.00;;;21.80;99.90;;;;;;5011794;28;20258;-91
2023/06/01 17:09:49;;;;;;;6.93;3.22;;;22.40;99.90;;;;;;5018744;28;20202;-93
2023/06/01 17:12:17;;;;;;;14.43;7.65;;;22.30;99.90;;;;;;5014922;28;20219;-91
2023/06/01 17:14:45;;;;;;;12.63;6.35;;;22.00;99.90;;;;;;5016607;28;20191;-92
2023/06/01 17:17:12;;;;;;;6.55;3.10;;;22.10;99.90;;;;;;5019322;28;20186;-91
2023/06/01 17:19:40;;;;;;;17.83;6.55;;;22.50;99.90;;;;;;5017999;28;20660;-91
2023/06/01 17:22:09;;;;;;;9.50;4.30;;;22.40;99.90;;;;;;5016383;28;20233;-92
2023/06/01 17:24:36;;;;;;;11.93;6.07;;;22.20;99.90;;;;;;5015687;28;20201;-91
2023/06/01 17:27:03;;;;;;;9.07;4.43;;;22.10;99.90;;;;;;5029948;28;20247;-91
2023/06/01 17:29:30;;;;;;;14.40;6.43;;;22.40;99.90;;;;;;5028651;28;20648;-91
2023/06/01 17:31:57;;;;;;;11.82;5.82;;;22.80;99.90;;;;;;5016363;28;20210;-92
2023/06/01 17:34:23;;;;;;;22.73;9.85;;;23.30;99.90;;;;;;5017118;28;20249;-91
2023/06/01 17:36:52;;;;;;;22.63;11.02;;;23.60;99.90;;;;;;5012228;28;20203;-92
2023/06/01 17:39:21;;;;;;;15.57;7.05;;;23.60;99.90;;;;;;5016577;28;20199;-92
2023/06/01 17:41:48;;;;;;;21.67;10.05;;;23.10;99.90;;;;;;5029780;28;20186;-93
2023/06/01 17:44:16;;;;;;;17.70;7.88;;;23.10;99.90;;;;;;5016511;28;20198;-92
2023/06/01 17:46:43;;;;;;;40.05;15.77;;;23.40;99.90;;;;;;5016232;28;20285;-92
2023/06/01 17:49:10;;;;;;;36.75;14.07;;;23.70;99.90;;;;;;5016026;28;20194;-92
2023/06/01 17:51:38;;;;;;;13.80;5.85;;;24.00;99.90;;;;;;5016153;28;20210;-92
2023/06/01 17:54:06;;;;;;;14.80;5.97;;;24.30;99.90;;;;;;5015664;28;20690;-92
2023/06/01 17:56:34;;;;;;;10.52;4.05;;;24.40;99.90;;;;;;5015716;28;20656;-92
2023/06/01 17:59:01;;;;;;;22.35;8.50;;;24.40;99.90;;;;;;5016264;28;20199;-93
2023/06/01 18:01:28;;;;;;;21.17;9.65;;;24.40;99.90;;;;;;5016000;28;20246;-92
2023/06/01 18:03:55;;;;;;;25.77;9.63;;;24.20;99.90;;;;;;5016011;28;20285;-92
2023/06/01 18:06:22;;;;;;;9.15;4.25;;;24.10;99.90;;;;;;5025139;28;20786;-93
2023/06/01 18:08:49;;;;;;;14.35;7.05;;;23.40;99.90;;;;;;5016574;28;20198;-92
2023/06/01 18:11:18;;;;;;;12.52;7.30;;;22.50;99.90;;;;;;5016985;28;20252;-92
2023/06/01 18:13:45;;;;;;;8.75;5.13;;;21.60;99.90;;;;;;5015687;28;20194;-92
2023/06/01 18:16:13;;;;;;;9.27;4.60;;;20.80;99.90;;;;;;5015862;28;20202;-91
2023/06/01 18:18:39;;;;;;;7.68;4.05;;;20.30;99.90;;;;;;5016271;28;20248;-90
2023/06/01 18:21:06;;;;;;;8.45;4.35;;;19.80;99.90;;;;;;5027856;28;20256;-90
2023/06/01 18:23:33;;;;;;;9.23;4.60;;;19.50;99.90;;;;;;5015701;28;20249;-91
2023/06/01 18:26:00;;;;;;;9.25;4.15;;;19.10;99.90;;;;;;5015608;28;20660;-92
2023/06/01 18:28:28;;;;;;;12.63;5.07;;;18.90;99.90;;;;;;5015246;28;20288;-94
2023/06/01 18:30:55;;;;;;;10.30;4.20;;;18.60;99.90;;;;;;4996057;28;20199;-93
2023/06/01 18:33:22;;;;;;;10.90;5.60;;;18.40;99.90;;;;;;5012698;28;20214;-95
2023/06/01 18:35:49;;;;;;;14.43;8.02;;;18.20;99.90;;;;;;5015947;28;20686;-93
2023/06/01 18:38:18;;;;;;;16.83;10.15;;;18.10;99.90;;;;;;5002236;28;20211;-92
2023/06/01 18:40:46;;;;;;;12.48;7.18;;;17.90;99.90;;;;;;4999772;28;20256;-92
2023/06/01 18:43:13;;;;;;;15.38;9.63;;;17.70;99.90;;;;;;5015887;28;20198;-92
2023/06/01 18:45:42;;;;;;;12.52;7.75;;;17.60;99.90;;;;;;5015837;28;20194;-91
2023/06/01 18:48:09;;;;;;;32.25;13.55;;;17.50;99.90;;;;;;4995820;28;20203;-93
2023/06/01 18:50:36;;;;;;;32.70;12.27;;;17.30;99.90;;;;;;4995515;28;20237;-90
2023/06/01 18:53:03;;;;;;;19.92;5.03;;;17.20;99.90;;;;;;5005868;28;20210;-91
2023/06/01 18:55:30;;;;;;;12.80;5.20;;;17.00;99.90;;;;;;5014394;28;20193;-91
2023/06/01 18:57:57;;;;;;;16.55;6.05;;;16.90;99.90;;;;;;5010973;28;20245;-91
2023/06/01 19:00:24;;;;;;;15.95;4.70;;;16.70;99.90;;;;;;4994905;28;20199;-91
2023/06/01 19:02:52;;;;;;;11.30;3.70;;;16.60;99.90;;;;;;5011849;28;20213;-91
2023/06/01 19:05:22;;;;;;;9.98;3.92;;;16.50;99.90;;;;;;5009078;28;20202;-92
2023/06/01 19:07:49;;;;;;;9.63;3.85;;;16.40;99.90;;;;;;5014408;28;20252;-91
2023/06/01 19:10:27;;;;;;;9.45;3.92;;;16.20;99.90;;;;;;5010920;28;20199;-90
2023/06/01 19:12:53;;;;;;;13.18;3.33;;;16.20;99.90;;;;;;4994896;28;20265;-91
2023/06/01 19:15:24;;;;;;;7.63;3.30;;;16.00;99.90;;;;;;5016860;28;20209;-91
2023/06/01 19:17:53;;;;;;;12.48;3.35;;;15.90;99.90;;;;;;5017093;28;20729;-91
2023/06/01 19:21:06;;;;;;;13.40;4.43;;;15.70;1.00;;;;;;5013541;28;20667;-90
2023/06/01 19:23:33;;;;;;;10.43;3.42;;;15.60;1.00;;;;;;5011977;28;20655;-91
2023/06/01 19:26:00;;;;;;;123.97;61.97;;;15.50;1.00;;;;;;5010671;28;20210;-91
2023/06/01 19:28:27;;;;;;;157.63;76.70;;;15.40;1.00;;;;;;5013719;28;20224;-90
2023/06/01 19:30:54;;;;;;;21.35;11.85;;;15.40;1.00;;;;;;5013434;28;20201;-91
2023/06/01 19:33:24;;;;;;;10.63;5.53;;;15.30;1.00;;;;;;5013235;28;20227;-90
2023/06/01 19:35:51;;;;;;;10.68;5.30;;;15.20;1.00;;;;;;5013253;28;20279;-91
2023/06/01 19:38:18;;;;;;;15.70;4.97;;;15.20;1.00;;;;;;5013747;28;20204;-92
2023/06/01 19:40:45;;;;;;;7.47;4.10;;;15.00;1.00;;;;;;5013959;28;20208;-92
2023/06/01 19:43:41;;;;;;;8.20;4.10;;;15.00;1.00;;;;;;5013519;28;20200;-91
2023/06/01 19:46:19;;;;;;;8.18;4.30;;;14.90;1.00;;;;;;5012603;28;20212;-92
2023/06/01 19:48:48;;;;;;;9.43;6.00;;;14.80;1.00;;;;;;5013927;28;20220;-91
2023/06/01 19:51:16;;;;;;;11.15;4.47;;;14.70;1.00;;;;;;5013911;28;20952;-91
2023/06/01 19:53:46;;;;;;;11.68;5.05;;;14.60;1.00;;;;;;5013333;28;20239;-91
2023/06/01 19:56:32;;;;;;;12.47;5.93;;;14.50;1.00;;;;;;5012982;28;20231;-91
2023/06/01 19:58:59;;;;;;;12.98;7.63;;;14.50;1.00;;;;;;5013494;28;20195;-91
2023/06/01 20:01:30;;;;;;;14.68;7.35;;;14.40;4.00;;;;;;5012497;28;20201;-91
2023/06/01 20:03:59;;;;;;;11.75;7.82;;;14.30;42.30;;;;;;5013089;28;20230;-90
2023/06/01 20:06:28;;;;;;;15.13;9.17;;;14.30;91.00;;;;;;5020929;28;20248;-91
2023/06/01 20:09:07;;;;;;;19.37;10.13;;;14.20;99.90;;;;;;5001573;28;20217;-91
2023/06/01 20:11:37;;;;;;;15.57;9.20;;;14.10;99.90;;;;;;5006934;28;20278;-90
2023/06/01 20:14:04;;;;;;;14.27;8.90;;;14.10;99.90;;;;;;5011920;28;20285;-89
2023/06/01 20:16:31;;;;;;;13.05;8.93;;;14.00;99.90;;;;;;5007077;28;20192;-90
2023/06/01 20:18:59;;;;;;;13.00;7.43;;;14.00;99.90;;;;;;5012026;28;20193;-90
2023/06/01 20:21:26;;;;;;;12.27;6.97;;;13.90;99.90;;;;;;5013010;28;20256;-90
2023/06/01 20:23:53;;;;;;;9.80;5.60;;;13.90;99.90;;;;;;5012589;28;20192;-90
2023/06/01 20:26:21;;;;;;;8.70;5.40;;;13.90;99.90;;;;;;5012472;28;20195;-89
2023/06/01 20:28:50;;;;;;;11.83;6.10;;;13.80;99.90;;;;;;4966253;28;1344045;-90
2023/06/01 20:31:22;;;;;;;10.63;5.27;;;13.80;99.90;;;;;;5013713;28;20209;-90
2023/06/01 20:33:49;;;;;;;12.03;5.37;;;13.80;99.90;;;;;;5013935;28;20267;-91
2023/06/01 20:36:25;;;;;;;10.70;5.77;;;13.70;99.90;;;;;;5014090;28;20201;-91
2023/06/01 20:38:52;;;;;;;11.63;5.90;;;13.70;99.90;;;;;;5011035;28;20618;-91
2023/06/01 20:41:23;;;;;;;8.27;5.30;;;13.70;1.00;;;;;;5013238;28;20671;-90
2023/06/01 20:43:51;;;;;;;9.33;5.40;;;13.70;1.00;;;;;;5013206;28;20283;-89
2023/06/01 20:46:21;;;;;;;10.27;5.33;;;13.70;1.00;;;;;;5013569;28;20228;-89
2023/06/01 20:48:49;;;;;;;10.27;5.43;;;13.60;1.00;;;;;;5012987;28;20617;-89
2023/06/01 20:51:27;;;;;;;10.73;5.13;;;13.60;1.00;;;;;;5012938;28;20197;-89
2023/06/01 20:53:56;;;;;;;14.77;5.97;;;13.60;1.00;;;;;;5013016;28;20367;-90
2023/06/01 20:56:30;;;;;;;10.03;5.47;;;13.50;1.00;;;;;;5013867;28;20253;-90
2023/06/01 20:59:05;;;;;;;8.10;5.13;;;13.50;1.00;;;;;;5006613;28;20201;-90
2023/06/01 21:01:34;;;;;;;10.30;5.50;;;13.40;1.00;;;;;;5010958;28;20188;-89
2023/06/01 21:04:01;;;;;;;28.80;12.63;;;13.40;1.00;;;;;;5019778;28;20236;-90
2023/06/01 21:06:30;;;;;;;13.57;6.30;;;13.30;1.00;;;;;;5024680;28;20193;-90
2023/06/01 21:08:59;;;;;;;11.00;5.10;;;13.20;1.00;;;;;;5016501;28;20211;-89
2023/06/01 21:11:27;;;;;;;9.73;5.23;;;13.20;1.00;;;;;;5016667;28;20228;-90
2023/06/01 21:13:54;;;;;;;8.43;4.80;;;13.20;1.00;;;;;;5016020;28;20272;-90
2023/06/01 21:16:21;;;;;;;11.27;5.37;;;13.10;3.60;;;;;;5016579;28;20614;-90
2023/06/01 21:18:49;;;;;;;10.63;5.50;;;13.10;86.50;;;;;;5016454;28;20262;-91
2023/06/01 21:21:16;;;;;;;10.60;5.20;;;13.00;99.90;;;;;;5016669;28;20215;-91
2023/06/01 21:23:44;;;;;;;11.30;5.00;;;13.00;99.90;;;;;;5016439;28;20636;-90
2023/06/01 21:26:11;;;;;;;10.50;4.60;;;12.90;99.90;;;;;;5016236;28;20258;-89
2023/06/01 21:28:38;;;;;;;8.93;4.70;;;12.80;99.90;;;;;;5023853;28;20271;-90
2023/06/01 21:31:06;;;;;;;8.70;5.13;;;12.80;99.90;;;;;;5024889;28;20206;-89
2023/06/01 21:33:33;;;;;;;12.23;5.77;;;12.70;99.90;;;;;;5015984;28;20210;-90
2023/06/01 21:36:00;;;;;;;9.67;4.63;;;12.60;99.90;;;;;;5016259;28;20258;-90
2023/06/01 21:38:27;;;;;;;7.87;4.30;;;12.50;99.90;;;;;;5016323;28;20229;-89
2023/06/01 21:40:55;;;;;;;10.13;5.03;;;12.40;99.90;;;;;;5015795;28;20229;-90
2023/06/01 21:43:23;;;;;;;10.97;5.10;;;12.30;99.90;;;;;;5016228;28;20253;-90
2023/06/01 21:45:50;;;;;;;12.07;5.13;;;12.20;99.90;;;;;;5016250;28;20199;-90
2023/06/01 21:48:18;;;;;;;11.77;4.90;;;12.10;99.90;;;;;;5016083;28;20200;-89
2023/06/01 21:50:46;;;;;;;10.27;5.10;;;12.00;1.00;;;;;;5016134;28;20260;-90
2023/06/01 21:53:14;;;;;;;9.30;5.37;;;12.00;1.00;;;;;;5015847;28;20298;-90
2023/06/01 21:55:42;;;;;;;10.93;5.40;;;11.90;1.00;;;;;;5015678;28;20205;-90
2023/06/01 21:58:10;;;;;;;7.43;4.93;;;11.80;1.00;;;;;;5015958;28;20198;-89
2023/06/01 22:00:37;;;;;;;10.97;5.50;;;11.70;1.00;;;;;;5015530;28;20198;-90
2023/06/01 22:03:04;;;;;;;11.23;5.50;;;11.70;1.00;;;;;;5015953;28;20201;-90
2023/06/01 22:05:32;;;;;;;9.47;5.03;;;11.60;1.00;;;;;;5015865;28;20630;-91
2023/06/01 22:07:59;;;;;;;11.33;5.23;;;11.60;1.00;;;;;;5015683;28;20220;-90
2023/06/01 22:10:26;;;;;;;10.00;4.70;;;11.60;1.00;;;;;;5014839;28;20194;-90
2023/06/01 22:12:53;;;;;;;7.87;4.67;;;11.50;1.00;;;;;;5015016;28;20213;-90
2023/06/01 22:15:21;;;;;;;7.03;4.83;;;11.50;1.00;;;;;;5015498;28;20193;-90
2023/06/01 22:17:50;;;;;;;13.53;5.50;;;11.50;99.90;;;;;;5015441;28;20205;-91
2023/06/01 22:20:17;;;;;;;10.17;4.47;;;11.50;99.90;;;;;;5015502;28;20210;-89
2023/06/01 22:22:44;;;;;;;8.67;4.43;;;11.50;99.90;;;;;;5014678;28;20197;-90
2023/06/01 22:25:11;;;;;;;8.87;4.73;;;11.50;99.90;;;;;;5014876;28;20204;-89
2023/06/01 22:27:38;;;;;;;8.70;4.90;;;11.60;99.90;;;;;;5014946;28;20254;-87
2023/06/01 22:30:06;;;;;;;13.37;5.73;;;11.60;99.90;;;;;;4976429;28;20260;-89
2023/06/01 22:32:34;;;;;;;9.90;4.60;;;11.50;99.90;;;;;;4990360;28;20671;-89
2023/06/01 22:35:01;;;;;;;9.10;5.97;;;11.50;99.90;;;;;;4995139;28;20306;-89
2023/06/01 22:37:28;;;;;;;10.27;4.70;;;11.50;99.90;;;;;;4994931;28;20206;-89
2023/06/01 22:39:55;;;;;;;9.80;4.83;;;11.40;99.90;;;;;;4994910;28;20243;-90
2023/06/01 22:42:22;;;;;;;10.97;4.53;;;11.40;99.90;;;;;;4995103;28;20677;-89
2023/06/01 22:44:49;;;;;;;8.27;4.73;;;11.40;99.90;;;;;;4995364;28;20201;-90
2023/06/01 22:47:16;;;;;;;10.30;5.00;;;11.40;99.90;;;;;;4994767;28;20198;-89
2023/06/01 22:49:45;;;;;;;11.80;5.10;;;11.40;99.90;;;;;;4995446;28;20278;-88
2023/06/01 22:52:13;;;;;;;7.80;4.40;;;11.40;1.00;;;;;;4994769;28;20216;-89
2023/06/01 22:54:40;;;;;;;10.57;4.87;;;11.40;1.00;;;;;;4994727;28;20312;-89
2023/06/01 22:57:08;;;;;;;9.70;4.87;;;11.40;1.00;;;;;;4994795;28;20240;-90
2023/06/01 22:59:35;;;;;;;9.97;4.77;;;11.40;1.00;;;;;;4994865;28;20236;-90
2023/06/01 23:02:02;;;;;;;8.40;4.60;;;11.30;1.00;;;;;;4995039;28;20206;-90
2023/06/01 23:04:34;;;;;;;9.27;4.40;;;11.30;1.00;;;;;;4995213;28;20197;-90
2023/06/01 23:07:06;;;;;;;11.53;5.03;;;11.30;1.00;;;;;;4976276;28;20225;-90
2023/06/01 23:09:34;;;;;;;9.87;4.90;;;11.20;1.00;;;;;;4975234;28;20194;-89
2023/06/01 23:12:02;;;;;;;11.37;4.53;;;11.20;1.00;;;;;;4990375;28;20201;-90
2023/06/01 23:14:32;;;;;;;8.53;4.67;;;11.10;1.00;;;;;;4994978;28;20596;-89
2023/06/01 23:17:02;;;;;;;11.10;4.77;;;11.10;1.00;;;;;;4994315;28;20215;-89
2023/06/01 23:19:31;;;;;;;7.40;4.60;;;11.00;1.00;;;;;;4994652;28;20227;-90
2023/06/01 23:21:59;;;;;;;9.93;4.83;;;10.90;99.90;;;;;;4994117;28;20556;-89
2023/06/01 23:24:28;;;;;;;12.27;4.97;;;10.80;99.90;;;;;;4976163;28;20201;-89
2023/06/01 23:26:55;;;;;;;11.37;5.00;;;10.80;99.90;;;;;;5003743;28;20203;-90
2023/06/01 23:29:22;;;;;;;6.50;4.47;;;10.80;99.90;;;;;;4998147;28;20233;-90
2023/06/01 23:31:49;;;;;;;9.03;4.63;;;10.60;99.90;;;;;;4994881;28;20259;-90
2023/06/01 23:34:16;;;;;;;11.47;4.47;;;10.50;99.90;;;;;;4994575;28;20712;-90
2023/06/01 23:36:45;;;;;;;10.40;4.47;;;10.40;99.90;;;;;;4994485;28;20199;-89
2023/06/01 23:39:13;;;;;;;9.23;4.60;;;10.30;99.90;;;;;;4974833;28;20200;-89
2023/06/01 23:41:41;;;;;;;10.07;4.43;;;10.20;99.90;;;;;;4991470;28;20199;-89
2023/06/01 23:44:08;;;;;;;7.33;4.57;;;10.10;99.90;;;;;;4986331;28;20225;-89
2023/06/01 23:46:35;;;;;;;10.23;4.93;;;10.10;99.90;;;;;;4993812;28;20565;-89
2023/06/01 23:49:03;;;;;;;14.63;5.13;;;10.00;99.90;;;;;;4994146;28;20679;-89
2023/06/01 23:51:30;;;;;;;10.47;5.50;;;10.00;99.90;;;;;;4994344;28;20211;-90
2023/06/01 23:53:57;;;;;;;9.80;5.83;;;10.00;99.90;;;;;;4994248;28;20218;-90
2023/06/01 23:56:24;;;;;;;9.50;5.03;;;9.90;1.00;;;;;;4993773;28;20656;-89
2023/06/01 23:58:53;;;;;;;9.47;5.13;;;9.90;1.00;;;;;;4994314;28;20235;-89
